Time;durP1;ratioP1;P1;durP2;ratioP2;P2;SDS_P1;SDS_P2;PMS_P1;PMS_P2;Temp;Humidity;BMP_temperature;BMP_pressure;BME280_temperature;BME280_humidity;BME280_pressure;Samples;Min_cycle;Max_cycle;Signal;HPM_P1;HPM_P2
2022/03/22 00:01:51;;;;;;;36.00;32.67;;;;;;;2.22;84.90;103385.19;5051536;28;20439;-45
2022/03/22 00:04:18;;;;;;;39.37;35.20;;;;;;;2.22;85.65;103385.19;5052120;28;20435;-46
2022/03/22 00:06:46;;;;;;;50.10;40.37;;;;;;;2.24;85.49;103385.06;5051326;28;20471;-45
2022/03/22 00:09:14;;;;;;;41.23;37.00;;;;;;;2.31;86.10;103385.63;5052082;28;20419;-46
2022/03/22 00:11:41;;;;;;;47.20;40.93;;;;;;;2.39;86.64;103394.81;5051766;28;20479;-44
2022/03/22 00:14:09;;;;;;;42.47;38.20;;;;;;;2.36;86.09;103389.72;5052031;28;20438;-45
2022/03/22 00:16:37;;;;;;;38.07;34.60;;;;;;;2.31;86.17;103388.25;5051110;28;20473;-45
2022/03/22 00:19:26;;;;;;;38.03;34.23;;;;;;;2.21;85.77;103395.81;5051508;28;20494;-48
2022/03/22 00:21:54;;;;;;;36.20;32.60;;;;;;;2.14;85.47;103395.25;5051824;28;20530;-46
2022/03/22 00:24:21;;;;;;;40.40;36.13;;;;;;;2.12;86.49;103399.72;5051758;28;20431;-44
2022/03/22 00:26:49;;;;;;;40.00;35.27;;;;;;;2.08;86.30;103399.97;5051140;28;20882;-45
2022/03/22 00:29:17;;;;;;;39.90;36.00;;;;;;;2.07;86.27;103399.13;5052071;28;20531;-46
2022/03/22 00:31:46;;;;;;;38.63;34.87;;;;;;;2.05;86.39;103397.50;5051894;28;20435;-46
2022/03/22 00:34:14;;;;;;;37.03;33.67;;;;;;;2.05;86.87;103395.72;5051636;28;20439;-46
2022/03/22 00:36:45;;;;;;;37.87;34.10;;;;;;;2.06;87.22;103392.13;5051128;28;20489;-44
2022/03/22 00:39:12;;;;;;;36.57;33.13;;;;;;;2.03;86.98;103394.09;5051558;28;20471;-43
2022/03/22 00:41:40;;;;;;;35.67;32.37;;;;;;;1.98;86.74;103396.09;5051232;28;20941;-45
2022/03/22 00:44:08;;;;;;;36.63;33.17;;;;;;;1.97;87.40;103392.59;5054404;28;20437;-45
2022/03/22 00:46:36;;;;;;;33.50;30.20;;;;;;;1.90;87.02;103382.47;5071556;22;20493;-47
2022/03/22 00:49:04;;;;;;;34.90;31.60;;;;;;;1.86;86.93;103392.28;5054588;28;20926;-48
2022/03/22 00:51:32;;;;;;;35.57;31.90;;;;;;;1.82;87.03;103392.53;5054593;28;20442;-45
2022/03/22 00:54:02;;;;;;;35.07;31.77;;;;;;;1.77;87.08;103391.88;5054569;28;20881;-47
2022/03/22 00:56:30;;;;;;;36.30;32.40;;;;;;;1.73;87.00;103388.56;5065093;28;20549;-43
2022/03/22 01:01:40;;;;;;;33.10;29.70;;;;;;;1.61;87.29;103387.38;5073412;28;20751;-45
2022/03/22 01:04:09;;;;;;;34.67;31.37;;;;;;;1.59;86.83;103391.00;5074511;28;20517;-44
2022/03/22 01:06:37;;;;;;;34.33;30.77;;;;;;;1.58;87.48;103386.69;5073812;28;20836;-46
2022/03/22 01:09:06;;;;;;;35.13;31.70;;;;;;;1.55;87.39;103387.66;5074281;28;20517;-45
2022/03/22 01:11:33;;;;;;;33.60;30.07;;;;;;;1.46;87.30;103385.50;5074201;28;20430;-45
2022/03/22 01:14:01;;;;;;;30.97;27.97;;;;;;;1.40;86.68;103385.78;5074248;28;20436;-44
2022/03/22 01:16:29;;;;;;;33.30;29.93;;;;;;;1.35;86.76;103384.28;5073662;28;20573;-46
2022/03/22 01:18:56;;;;;;;33.10;29.77;;;;;;;1.35;86.99;103389.53;5074125;28;20533;-44
2022/03/22 01:21:24;;;;;;;36.70;33.40;;;;;;;1.36;87.47;103383.38;5073779;28;20474;-44
2022/03/22 01:23:52;;;;;;;35.60;31.90;;;;;;;1.35;87.04;103382.50;5073979;28;20434;-43
2022/03/22 01:26:21;;;;;;;34.27;30.97;;;;;;;1.35;87.44;103387.78;5073663;28;20546;-46
2022/03/22 01:28:48;;;;;;;32.07;29.03;;;;;;;1.31;87.00;103377.50;5074076;28;20861;-44
2022/03/22 01:31:16;;;;;;;32.03;28.83;;;;;;;1.24;86.76;103373.44;5073647;28;20933;-43
2022/03/22 01:33:44;;;;;;;32.23;29.07;;;;;;;1.20;87.28;103379.75;5073871;28;20525;-44
2022/03/22 01:36:11;;;;;;;33.30;29.83;;;;;;;1.17;87.40;103369.38;5073439;28;20454;-46
2022/03/22 01:38:40;;;;;;;34.33;30.90;;;;;;;1.12;87.45;103366.97;5078776;28;20525;-44
2022/03/22 01:41:07;;;;;;;33.77;30.63;;;;;;;1.11;87.72;103378.41;5085303;28;20568;-44
2022/03/22 01:43:37;;;;;;;33.40;30.20;;;;;;;1.10;86.92;103367.06;5094080;28;20524;-45
2022/03/22 01:46:04;;;;;;;32.83;29.87;;;;;;;1.08;87.48;103368.91;5084280;28;20461;-44
2022/03/22 01:48:32;;;;;;;33.20;30.10;;;;;;;1.09;87.26;103372.38;5087895;28;20799;-44
2022/03/22 01:51:00;;;;;;;35.77;31.90;;;;;;;1.12;87.99;103364.34;5093744;28;20770;-46
2022/03/22 01:53:29;;;;;;;36.00;32.10;;;;;;;1.16;87.87;103365.06;5093657;28;20430;-43
2022/03/22 01:55:58;;;;;;;33.03;30.00;;;;;;;1.16;87.27;103365.06;5092373;28;20456;-44
2022/03/22 01:58:25;;;;;;;34.50;30.90;;;;;;;1.13;87.53;103360.81;5093543;28;20508;-44
2022/03/22 02:05:51;;;;;;;34.10;30.77;;;;;;;1.08;86.98;103358.38;5093581;28;20469;-46
2022/03/22 02:06:33;;;;;;;31.63;28.50;;;;;;;0.99;87.10;103357.94;5092890;28;20572;-44
2022/03/22 02:09:01;;;;;;;34.23;30.63;;;;;;;0.95;87.50;103357.25;5093378;28;20430;-45
2022/03/22 02:11:29;;;;;;;34.03;30.47;;;;;;;0.94;87.48;103360.81;5093383;28;20434;-45
2022/03/22 02:13:56;;;;;;;33.30;29.80;;;;;;;0.91;87.63;103352.22;5093629;28;20892;-48
2022/03/22 02:16:26;;;;;;;32.10;29.20;;;;;;;0.91;87.61;103355.69;5092695;28;20488;-45
2022/03/22 02:18:54;;;;;;;31.80;28.77;;;;;;;0.88;87.38;103355.84;5093627;28;20487;-44
2022/03/22 02:21:25;;;;;;;32.00;28.90;;;;;;;0.86;87.29;103351.56;5092922;28;20473;-45
2022/03/22 02:23:56;;;;;;;31.57;28.70;;;;;;;0.82;87.09;103352.63;5093507;28;20579;-44
2022/03/22 02:26:26;;;;;;;31.13;28.27;;;;;;;0.77;87.25;103341.50;5092799;28;20544;-44
2022/03/22 02:28:54;;;;;;;32.50;29.40;;;;;;;0.74;87.31;103347.75;5093435;28;20512;-46
2022/03/22 02:31:23;;;;;;;35.63;31.97;;;;;;;0.78;88.17;103338.78;5092845;28;20461;-46
2022/03/22 02:33:51;;;;;;;32.77;29.60;;;;;;;0.78;87.72;103351.06;5092946;28;20433;-47
2022/03/22 02:36:19;;;;;;;32.73;29.57;;;;;;;0.80;88.17;103347.47;5092317;28;20987;-43
2022/03/22 02:38:46;;;;;;;34.57;30.90;;;;;;;0.81;87.97;103349.16;5093146;28;20528;-45
2022/03/22 02:41:18;;;;;;;33.27;28.80;;;;;;;0.79;87.68;103351.00;5092632;28;20469;-44
2022/03/22 02:43:46;;;;;;;31.10;28.20;;;;;;;0.76;88.04;103342.41;5092977;28;20461;-48
2022/03/22 02:46:14;;;;;;;30.90;27.80;;;;;;;0.73;87.93;103348.66;5082017;28;20462;-45
2022/03/22 02:48:42;;;;;;;32.03;29.23;;;;;;;0.71;87.82;103354.91;5087826;28;20475;-43
2022/03/22 02:51:11;;;;;;;34.20;31.00;;;;;;;0.68;87.69;103347.16;5092671;28;20796;-44
2022/03/22 02:53:39;;;;;;;32.73;29.57;;;;;;;0.68;88.24;103348.03;5092809;28;20515;-44
2022/03/22 02:56:07;;;;;;;32.60;29.60;;;;;;;0.68;88.56;103347.16;5092066;28;20532;-46
2022/03/22 02:58:36;;;;;;;33.97;30.87;;;;;;;0.68;87.69;103350.66;5092624;28;20436;-42
2022/03/22 03:01:04;;;;;;;36.10;32.43;;;;;;;0.67;88.37;103351.56;5092129;28;20831;-43
2022/03/22 03:03:33;;;;;;;31.60;28.60;;;;;;;0.65;87.75;103356.03;5092387;28;20428;-43
2022/03/22 03:06:01;;;;;;;34.17;30.60;;;;;;;0.65;88.41;103352.56;5091928;28;20441;-45
2022/03/22 03:08:28;;;;;;;31.90;28.87;;;;;;;0.64;88.51;103350.84;5092469;28;20429;-47
2022/03/22 03:10:56;;;;;;;29.43;26.73;;;;;;;0.60;88.12;103346.66;5092007;28;20639;-44
2022/03/22 03:13:24;;;;;;;35.33;31.77;;;;;;;0.57;88.11;103350.25;5092272;28;20429;-47
2022/03/22 03:15:53;;;;;;;32.70;29.53;;;;;;;0.57;88.05;103363.38;5091874;28;20456;-45
2022/03/22 03:18:21;;;;;;;34.30;30.57;;;;;;;0.51;87.81;103354.00;5092379;28;21102;-44
2022/03/22 03:20:48;;;;;;;32.03;28.97;;;;;;;0.47;88.53;103355.09;5091896;28;20460;-45
2022/03/22 03:23:16;;;;;;;34.23;30.80;;;;;;;0.48;88.52;103354.16;5092092;28;20494;-46
2022/03/22 03:25:44;;;;;;;31.23;28.30;;;;;;;0.44;88.17;103357.84;5092169;28;20611;-45
2022/03/22 03:28:12;;;;;;;33.10;29.80;;;;;;;0.41;88.41;103357.13;5091720;28;20528;-42
2022/03/22 03:30:39;;;;;;;32.47;29.47;;;;;;;0.40;88.61;103358.03;5091938;28;20429;-44
2022/03/22 03:33:08;;;;;;;31.50;28.67;;;;;;;0.37;88.30;103359.03;5092156;28;20491;-43
2022/03/22 03:35:36;;;;;;;31.67;28.60;;;;;;;0.37;88.11;103359.03;5091965;28;20716;-44
2022/03/22 03:38:04;;;;;;;35.43;32.03;;;;;;;0.41;89.02;103365.00;5091458;28;20457;-46
2022/03/22 03:43:13;;;;;;;33.97;30.50;;;;;;;0.49;88.59;103366.38;5091001;28;20437;-43
2022/03/22 03:48:27;;;;;;;32.23;28.93;;;;;;;0.52;89.08;103374.09;5077884;28;20434;-44
2022/03/22 03:50:55;;;;;;;33.30;29.87;;;;;;;0.53;88.63;103370.56;5091340;28;21115;-45
2022/03/22 03:53:23;;;;;;;33.77;30.47;;;;;;;0.53;88.96;103372.34;5091939;28;20438;-44
2022/03/22 03:55:51;;;;;;;35.23;31.90;;;;;;;0.53;88.75;103365.31;5091266;28;20536;-45
2022/03/22 03:58:18;;;;;;;33.67;30.37;;;;;;;0.54;89.55;103371.41;5091946;28;20828;-43
2022/03/22 04:00:46;;;;;;;34.57;31.47;;;;;;;0.53;89.42;103372.34;5091363;28;20525;-44
2022/03/22 04:03:14;;;;;;;32.77;29.57;;;;;;;0.51;89.22;103372.38;5091490;28;20498;-43
2022/03/22 04:05:43;;;;;;;35.13;31.23;;;;;;;0.47;89.22;103373.47;5091278;28;20820;-44
2022/03/22 04:08:11;;;;;;;30.30;27.40;;;;;;;0.43;89.21;103379.75;5091223;28;21011;-43
2022/03/22 04:10:38;;;;;;;35.00;31.60;;;;;;;0.39;88.86;103378.19;5091477;28;20464;-44
2022/03/22 04:13:06;;;;;;;39.57;35.40;;;;;;;0.34;89.01;103382.78;5091552;28;20859;-43
2022/03/22 04:15:34;;;;;;;37.50;33.63;;;;;;;0.32;89.08;103379.38;5091373;28;20543;-45
2022/03/22 04:18:02;;;;;;;33.17;29.70;;;;;;;0.31;89.41;103380.28;5091729;28;20488;-47
2022/03/22 04:20:30;;;;;;;34.73;31.03;;;;;;;0.27;89.41;103377.88;5095396;28;20425;-43
2022/03/22 04:22:59;;;;;;;34.97;31.57;;;;;;;0.23;88.92;103379.78;5095657;28;20429;-45
2022/03/22 04:25:26;;;;;;;36.07;31.83;;;;;;;0.18;89.47;103392.22;5095687;28;20486;-46
2022/03/22 04:33:36;;;;;;;33.27;30.07;;;;;;;0.10;90.29;103382.97;5086420;28;20425;-45
2022/03/22 04:36:05;;;;;;;32.93;29.93;;;;;;;0.09;90.41;103387.34;5094376;28;20457;-48
2022/03/22 04:38:34;;;;;;;35.63;32.00;;;;;;;0.08;90.46;103388.28;5081193;28;20499;-49
2022/03/22 04:41:02;;;;;;;29.83;26.93;;;;;;;0.07;89.93;103378.72;5092793;28;20552;-44
2022/03/22 04:43:29;;;;;;;34.53;30.97;;;;;;;0.08;89.97;103387.44;5095403;28;20522;-43
2022/03/22 04:45:57;;;;;;;31.93;28.90;;;;;;;0.09;89.93;103386.53;5086781;28;20831;-43
2022/03/22 04:48:25;;;;;;;33.20;29.90;;;;;;;0.09;89.94;103387.34;5087906;28;20477;-45
2022/03/22 04:56:43;;;;;;;35.57;31.73;;;;;;;0.10;90.04;103378.59;5094824;28;20425;-47
2022/03/22 04:56:46;;;;;;;32.63;29.57;;;;;;;0.10;90.07;103383.81;5094485;28;20484;-43
2022/03/22 04:59:15;;;;;;;31.60;28.57;;;;;;;0.12;90.40;103389.03;5094782;28;20448;-45
2022/03/22 05:01:43;;;;;;;35.27;31.97;;;;;;;0.13;90.64;103386.31;5094456;28;20906;-47
2022/03/22 05:04:11;;;;;;;34.30;31.10;;;;;;;0.14;89.96;103388.03;5094859;28;20476;-43
2022/03/22 05:06:39;;;;;;;33.43;30.03;;;;;;;0.14;90.57;103388.03;5094270;28;20584;-45
2022/03/22 05:09:10;;;;;;;35.07;31.77;;;;;;;0.14;90.35;103388.03;5094757;28;20433;-43
2022/03/22 05:11:38;;;;;;;33.57;30.13;;;;;;;0.12;90.30;103389.84;5094451;28;20468;-44
2022/03/22 05:14:08;;;;;;;33.77;30.40;;;;;;;0.11;90.30;103388.16;5094597;28;20435;-47
2022/03/22 05:16:36;;;;;;;33.43;30.17;;;;;;;0.10;90.03;103394.31;5094021;28;20552;-43
2022/03/22 05:19:05;;;;;;;34.43;31.03;;;;;;;0.08;90.01;103398.78;5094799;28;20429;-44
2022/03/22 05:21:33;;;;;;;34.00;30.73;;;;;;;0.09;90.08;103397.03;5094253;28;20524;-44
2022/03/22 05:24:00;;;;;;;34.40;30.90;;;;;;;0.10;90.99;103396.09;5094411;28;20429;-43
2022/03/22 05:26:29;;;;;;;34.80;31.37;;;;;;;0.13;90.88;103394.19;5093914;28;20532;-43
2022/03/22 05:28:57;;;;;;;34.67;31.27;;;;;;;0.17;90.49;103401.03;5093531;28;20469;-43
2022/03/22 05:31:25;;;;;;;35.47;31.73;;;;;;;0.18;90.45;103392.22;5093730;28;20520;-47
2022/03/22 05:33:53;;;;;;;33.60;30.07;;;;;;;0.25;91.00;103405.94;5094108;28;20930;-45
2022/03/22 05:36:21;;;;;;;33.47;30.10;;;;;;;0.28;90.92;103404.03;5093532;28;20979;-47
2022/03/22 05:38:48;;;;;;;37.17;32.93;;;;;;;0.36;91.18;103395.84;5094023;28;20433;-46
2022/03/22 05:41:16;;;;;;;34.30;30.70;;;;;;;0.37;90.76;103397.53;5093739;28;20460;-48
2022/03/22 05:43:46;;;;;;;35.07;31.40;;;;;;;0.41;90.61;103399.97;5093829;28;20512;-47
2022/03/22 05:46:16;;;;;;;36.43;31.10;;;;;;;0.47;91.55;103402.34;5083293;28;20545;-45
2022/03/22 05:48:47;;;;;;;34.37;31.07;;;;;;;0.57;91.45;103399.31;5089550;28;20449;-43
2022/03/22 05:51:16;;;;;;;35.73;32.30;;;;;;;0.70;92.36;103396.06;5093701;28;20428;-46
2022/03/22 05:53:44;;;;;;;38.37;34.27;;;;;;;0.85;92.67;103392.75;5093655;28;20492;-44
2022/03/22 05:56:12;;;;;;;39.27;35.40;;;;;;;1.07;92.82;103395.25;5093002;28;20457;-51
2022/03/22 05:58:40;;;;;;;33.97;30.87;;;;;;;1.28;92.76;103396.88;5093588;28;21015;-46
2022/03/22 06:01:09;;;;;;;39.00;35.00;;;;;;;1.57;93.43;103401.59;5093559;28;20431;-45
2022/03/22 06:03:37;;;;;;;38.80;34.70;;;;;;;1.79;93.57;103405.81;5093482;28;20461;-43
2022/03/22 06:06:05;;;;;;;38.97;35.30;;;;;;;2.04;93.51;103404.53;5092790;28;20990;-43
2022/03/22 06:08:34;;;;;;;37.50;33.90;;;;;;;2.34;94.37;103403.91;5093420;28;20465;-46
2022/03/22 06:11:01;;;;;;;37.50;34.17;;;;;;;2.67;94.52;103408.28;5093435;28;20494;-45
2022/03/22 06:13:29;;;;;;;39.27;35.17;;;;;;;2.99;94.87;103403.91;5093438;28;20475;-46
2022/03/22 06:15:57;;;;;;;41.83;37.93;;;;;;;3.34;94.67;103396.72;5092719;28;20972;-48
2022/03/22 06:18:27;;;;;;;39.33;35.73;;;;;;;3.68;94.41;103401.78;5093285;28;20888;-47
2022/03/22 06:20:54;;;;;;;36.60;33.43;;;;;;;4.04;94.07;103403.25;5092995;28;20432;-44
2022/03/22 06:23:23;;;;;;;37.30;34.00;;;;;;;4.35;93.51;103408.44;5093190;28;20465;-45
2022/03/22 06:25:51;;;;;;;36.30;33.17;;;;;;;4.60;91.73;103408.63;5092584;28;20456;-44
2022/03/22 06:28:19;;;;;;;37.57;34.17;;;;;;;4.70;88.70;103409.78;5093223;28;20455;-46
2022/03/22 06:30:46;;;;;;;36.60;33.30;;;;;;;5.02;87.90;103410.44;5092925;28;20524;-43
2022/03/22 06:33:17;;;;;;;38.80;34.97;;;;;;;5.35;87.57;103404.81;5092916;28;20473;-42
2022/03/22 06:35:47;;;;;;;37.27;33.67;;;;;;;5.63;86.26;103417.97;5092781;28;20456;-43
2022/03/22 06:38:15;;;;;;;37.10;33.80;;;;;;;5.77;83.13;103423.22;5092754;28;20570;-44
2022/03/22 06:40:44;;;;;;;37.50;34.30;;;;;;;6.05;82.92;103423.16;5092465;28;20524;-46
2022/03/22 06:43:15;;;;;;;36.23;32.90;;;;;;;6.34;81.87;103418.53;5092816;28;20847;-44
2022/03/22 06:45:44;;;;;;;37.60;34.30;;;;;;;6.57;79.18;103430.22;5085754;28;20850;-45
2022/03/22 06:48:12;;;;;;;37.17;33.87;;;;;;;6.82;78.97;103427.56;5083914;28;20442;-45
2022/03/22 06:50:42;;;;;;;39.20;35.60;;;;;;;6.92;76.06;103433.09;5092708;28;20524;-45
2022/03/22 06:53:11;;;;;;;38.37;34.90;;;;;;;7.10;76.00;103429.13;5092532;28;20980;-43
2022/03/22 06:55:39;;;;;;;38.27;34.87;;;;;;;7.28;76.45;103433.13;5110384;22;20471;-40
2022/03/22 06:58:07;;;;;;;41.33;37.63;;;;;;;7.45;75.96;103432.75;5051833;28;20459;-41
2022/03/22 07:00:35;;;;;;;38.87;35.27;;;;;;;7.66;75.51;103433.84;5052025;28;20438;-41
2022/03/22 07:03:05;;;;;;;39.93;36.37;;;;;;;7.89;75.60;103429.50;5052453;28;20446;-42
2022/03/22 07:05:33;;;;;;;37.43;34.40;;;;;;;7.84;72.38;103429.00;5052281;28;20455;-42
2022/03/22 07:08:01;;;;;;;38.20;34.80;;;;;;;7.93;72.90;103430.97;5051691;28;20467;-42
2022/03/22 07:10:31;;;;;;;38.30;35.17;;;;;;;7.99;72.18;103427.88;5052028;28;20522;-41
2022/03/22 07:13:04;;;;;;;38.30;34.50;;;;;;;7.96;70.34;103428.09;5051957;28;20471;-41
2022/03/22 07:15:35;;;;;;;36.47;33.37;;;;;;;7.74;66.47;103434.13;5051974;28;20451;-42
2022/03/22 07:18:03;;;;;;;36.57;33.30;;;;;;;7.56;67.36;103430.16;5051485;28;21009;-43
2022/03/22 07:20:31;;;;;;;34.37;31.53;;;;;;;7.53;68.38;103424.22;5051945;28;20873;-41
2022/03/22 07:23:00;;;;;;;34.90;32.00;;;;;;;7.40;67.51;103428.75;5051995;28;20500;-46
2022/03/22 07:25:30;;;;;;;34.10;31.30;;;;;;;7.39;66.93;103437.66;5051878;28;20779;-42
2022/03/22 07:27:57;;;;;;;34.97;31.50;;;;;;;7.43;66.54;103432.03;5051369;28;20562;-40
2022/03/22 07:30:25;;;;;;;31.83;29.23;;;;;;;7.44;66.45;103432.84;5051701;28;20440;-40
2022/03/22 07:32:55;;;;;;;32.57;29.67;;;;;;;7.29;64.94;103444.59;5051954;28;20552;-41
2022/03/22 07:35:23;;;;;;;34.60;31.33;;;;;;;7.30;65.47;103436.50;5051660;28;21002;-41
2022/03/22 07:37:52;;;;;;;36.03;33.03;;;;;;;7.24;66.32;103437.81;5051212;28;20467;-40
2022/03/22 07:40:20;;;;;;;37.30;33.70;;;;;;;7.32;69.02;103439.06;5051409;28;20525;-42
2022/03/22 07:42:49;;;;;;;35.33;32.50;;;;;;;7.35;67.87;103438.84;5051852;28;20518;-42
2022/03/22 07:45:19;;;;;;;33.43;30.33;;;;;;;7.38;67.18;103442.13;5048419;28;20533;-44
2022/03/22 07:47:47;;;;;;;33.73;30.87;;;;;;;7.34;66.41;103455.72;5062809;28;20462;-42
2022/03/22 07:53:07;;;;;;;33.07;30.13;;;;;;;7.37;66.48;103455.50;5071102;28;20888;-41
2022/03/22 07:55:38;;;;;;;32.70;30.00;;;;;;;7.26;65.71;103458.09;5071546;28;20504;-40
2022/03/22 07:58:08;;;;;;;35.13;32.03;;;;;;;7.20;66.87;103454.91;5070943;28;20462;-41
2022/03/22 08:00:38;;;;;;;34.57;31.63;;;;;;;7.06;66.46;103457.69;5071403;28;20422;-41
2022/03/22 08:03:09;;;;;;;32.53;29.77;;;;;;;6.99;65.87;103456.41;5071301;28;20846;-41
2022/03/22 08:05:38;;;;;;;32.10;29.40;;;;;;;7.04;66.13;103462.25;5071627;28;20449;-40
2022/03/22 08:08:07;;;;;;;31.60;28.73;;;;;;;6.93;65.30;103463.97;5071051;28;20462;-40
2022/03/22 08:10:56;;;;;;;34.50;31.50;;;;;;;6.95;65.70;103465.56;5071139;28;20427;-43
2022/03/22 08:13:26;;;;;;;32.63;30.03;;;;;;;6.86;64.93;103460.03;5071281;28;20569;-41
2022/03/22 08:15:54;;;;;;;33.40;30.20;;;;;;;6.93;66.36;103467.44;5070999;28;20456;-42
2022/03/22 08:18:22;;;;;;;33.93;30.97;;;;;;;7.04;66.15;103464.91;5071247;28;21304;-41
2022/03/22 08:20:50;;;;;;;33.40;30.33;;;;;;;7.08;66.52;103462.88;5071315;28;20426;-42
2022/03/22 08:23:18;;;;;;;32.90;30.00;;;;;;;7.20;66.54;103464.66;5071200;28;20430;-40
2022/03/22 08:25:46;;;;;;;33.53;30.63;;;;;;;7.33;65.95;103462.84;5071291;28;20565;-41
2022/03/22 08:28:14;;;;;;;34.30;31.40;;;;;;;7.40;65.21;103460.59;5070801;28;20533;-40
2022/03/22 08:30:43;;;;;;;32.77;29.83;;;;;;;7.45;65.23;103469.94;5071236;28;20419;-40
2022/03/22 08:33:12;;;;;;;30.90;28.40;;;;;;;7.72;65.74;103464.44;5071061;28;20435;-40
2022/03/22 08:35:43;;;;;;;33.10;30.40;;;;;;;7.84;64.98;103466.19;5071416;28;20541;-42
2022/03/22 08:38:11;;;;;;;32.80;29.70;;;;;;;7.98;64.92;103467.81;5070638;28;20490;-43
2022/03/22 08:40:39;;;;;;;31.83;29.20;;;;;;;8.03;63.70;103463.88;5070857;28;20427;-41
2022/03/22 08:43:07;;;;;;;29.67;26.83;;;;;;;8.07;63.23;103462.69;5071197;28;20434;-42
2022/03/22 08:45:36;;;;;;;29.27;26.63;;;;;;;8.22;63.52;103461.53;5064481;28;20442;-42
2022/03/22 08:48:09;;;;;;;30.73;27.63;;;;;;;8.26;63.58;103462.16;5062165;28;20454;-42
2022/03/22 08:50:38;;;;;;;28.77;26.10;;;;;;;8.34;63.74;103465.97;5071027;28;20861;-41
2022/03/22 08:53:06;;;;;;;28.43;25.90;;;;;;;8.48;62.98;103461.41;5070968;28;20473;-40
2022/03/22 08:55:34;;;;;;;27.80;25.00;;;;;;;8.58;63.02;103465.03;5070970;28;20888;-41
2022/03/22 08:58:05;;;;;;;26.17;23.60;;;;;;;8.63;61.61;103463.72;5053783;28;21019;-41
2022/03/22 09:00:34;;;;;;;24.27;21.73;;;;;;;8.57;59.10;103471.34;5053266;28;20562;-40
2022/03/22 09:03:04;;;;;;;24.23;20.67;;;;;;;8.50;55.78;103464.78;5051286;28;20439;-43
2022/03/22 09:08:19;;;;;;;22.97;20.53;;;;;;;8.58;55.92;103473.03;5054538;28;20449;-42
2022/03/22 09:10:50;;;;;;;24.17;21.57;;;;;;;8.57;57.50;103466.84;5054435;28;20514;-41
2022/03/22 09:13:18;;;;;;;24.70;21.67;;;;;;;8.68;56.57;103468.72;5054349;28;20993;-43
2022/03/22 09:15:48;;;;;;;27.17;19.77;;;;;;;8.78;54.54;103465.22;5053746;28;20517;-42
2022/03/22 09:18:16;;;;;;;22.27;19.87;;;;;;;8.85;55.74;103463.78;5054246;28;20481;-40
2022/03/22 09:20:46;;;;;;;21.70;19.63;;;;;;;8.93;55.24;103463.16;5054278;28;20481;-41
2022/03/22 09:23:15;;;;;;;22.87;20.43;;;;;;;8.92;54.88;103471.28;5054400;28;20497;-41
2022/03/22 09:25:44;;;;;;;23.57;20.90;;;;;;;9.12;53.85;103463.44;5054135;28;20451;-40
2022/03/22 09:28:12;;;;;;;21.70;19.50;;;;;;;9.18;53.81;103468.28;5053833;28;20449;-41
2022/03/22 09:30:40;;;;;;;24.07;21.63;;;;;;;9.16;54.25;103462.22;5053855;28;20446;-42
2022/03/22 09:33:11;;;;;;;24.67;22.17;;;;;;;9.20;56.11;103466.31;5054482;28;20853;-41
2022/03/22 09:35:39;;;;;;;24.30;21.30;;;;;;;9.34;56.84;103459.91;5053775;28;20997;-41
2022/03/22 09:38:08;;;;;;;24.00;21.00;;;;;;;9.52;56.83;103470.91;5053301;28;21012;-43
2022/03/22 09:40:36;;;;;;;25.10;21.50;;;;;;;9.60;56.95;103466.66;5053671;28;20566;-41
2022/03/22 09:43:03;;;;;;;23.37;20.97;;;;;;;9.65;57.59;103468.94;5053688;28;20446;-43
2022/03/22 09:45:33;;;;;;;23.63;21.40;;;;;;;9.91;57.55;103473.00;5052612;28;20450;-41
2022/03/22 09:48:00;;;;;;;24.60;22.10;;;;;;;10.01;58.74;103463.25;5064754;28;20484;-44
2022/03/22 09:53:18;;;;;;;21.33;19.20;;;;;;;10.07;49.20;103459.22;5073698;28;20478;-41
2022/03/22 09:55:46;;;;;;;21.87;19.67;;;;;;;9.96;50.13;103463.66;5073340;28;20485;-41
2022/03/22 09:58:14;;;;;;;24.03;20.43;;;;;;;10.01;50.65;103458.78;5073439;28;20427;-42
2022/03/22 10:00:42;;;;;;;22.73;20.37;;;;;;;10.18;52.16;103448.56;5073500;28;20804;-42
2022/03/22 10:03:18;;;;;;;23.20;20.77;;;;;;;10.39;49.89;103447.59;5073514;28;20488;-43
2022/03/22 10:05:58;;;;;;;22.70;20.50;;;;;;;10.67;50.45;103451.44;5072899;28;20541;-42
2022/03/22 10:08:27;;;;;;;23.93;21.40;;;;;;;10.95;50.11;103439.22;5073414;28;20469;-42
2022/03/22 10:10:58;;;;;;;23.97;21.47;;;;;;;11.20;50.79;103448.63;5073431;28;20437;-43
2022/03/22 10:13:26;;;;;;;22.63;20.30;;;;;;;11.44;51.06;103436.56;5073315;28;20434;-41
2022/03/22 10:16:01;;;;;;;24.50;21.50;;;;;;;11.41;50.83;103441.38;5071926;28;20496;-40
2022/03/22 10:18:29;;;;;;;23.07;20.90;;;;;;;11.47;47.95;103428.28;5073162;28;20436;-44
2022/03/22 10:21:01;;;;;;;23.63;21.40;;;;;;;11.47;50.32;103438.97;5073181;28;20470;-42
2022/03/22 10:23:32;;;;;;;23.47;21.13;;;;;;;11.53;49.99;103433.09;5073181;28;20513;-42
2022/03/22 10:26:05;;;;;;;24.67;21.87;;;;;;;11.42;49.94;103435.88;5072495;28;20442;-41
2022/03/22 10:28:33;;;;;;;24.27;20.80;;;;;;;11.34;46.60;103432.19;5073190;28;20852;-41
2022/03/22 10:31:01;;;;;;;21.17;19.27;;;;;;;11.47;45.25;103430.09;5072663;28;20431;-42
2022/03/22 10:33:28;;;;;;;27.27;21.17;;;;;;;11.43;46.97;103432.22;5073166;28;20426;-43
2022/03/22 10:35:57;;;;;;;24.23;21.83;;;;;;;11.45;46.42;103426.75;5072134;28;21003;-42
2022/03/22 10:38:24;;;;;;;25.00;22.30;;;;;;;11.50;50.63;103441.38;5072908;28;20436;-42
2022/03/22 10:40:53;;;;;;;23.53;21.13;;;;;;;11.57;50.20;103422.97;5072481;28;20430;-41
2022/03/22 10:43:26;;;;;;;25.33;22.50;;;;;;;11.64;50.53;103426.78;5072701;28;20526;-43
2022/03/22 10:45:56;;;;;;;24.77;20.70;;;;;;;11.84;47.40;103420.50;5064725;28;20442;-43
2022/03/22 10:48:26;;;;;;;23.90;21.50;;;;;;;12.03;49.06;103414.31;5065680;28;20513;-41
2022/03/22 10:50:57;;;;;;;23.83;21.53;;;;;;;12.13;50.38;103423.16;5072514;28;20964;-45
2022/03/22 10:53:26;;;;;;;24.10;21.73;;;;;;;12.18;51.76;103415.56;5072464;28;20488;-41
2022/03/22 10:55:59;;;;;;;24.97;22.57;;;;;;;12.27;50.00;103417.41;5071455;28;20478;-41
2022/03/22 10:58:29;;;;;;;26.00;20.20;;;;;;;12.44;47.78;103415.81;5072551;28;20430;-41
2022/03/22 11:00:59;;;;;;;22.57;20.47;;;;;;;12.52;48.90;103414.09;5072113;28;20929;-42
2022/03/22 11:03:31;;;;;;;24.93;22.27;;;;;;;12.65;47.54;103420.00;5072649;28;20536;-41
2022/03/22 11:06:02;;;;;;;22.40;20.33;;;;;;;12.71;47.45;103418.56;5071629;28;20457;-41
2022/03/22 11:08:30;;;;;;;22.80;20.60;;;;;;;12.82;46.67;103406.81;5072282;28;20415;-45
2022/03/22 11:11:02;;;;;;;22.80;20.57;;;;;;;13.00;46.79;103399.69;5072211;28;20872;-41
2022/03/22 11:13:30;;;;;;;25.17;22.63;;;;;;;13.09;47.28;103404.19;5072158;28;20617;-42
2022/03/22 11:15:59;;;;;;;23.73;21.40;;;;;;;13.05;44.53;103400.94;5071533;28;20478;-41
2022/03/22 11:18:29;;;;;;;25.73;22.47;;;;;;;13.14;45.85;103399.25;5072007;28;20537;-44
2022/03/22 11:20:58;;;;;;;24.87;22.37;;;;;;;13.22;44.36;103402.03;5071742;28;20437;-43
2022/03/22 11:23:28;;;;;;;22.20;20.00;;;;;;;13.09;43.01;103393.47;5072175;28;20430;-41
2022/03/22 11:26:09;;;;;;;24.53;22.00;;;;;;;13.26;43.90;103404.25;5071508;28;20537;-42
2022/03/22 11:28:38;;;;;;;24.00;21.63;;;;;;;13.37;42.98;103392.50;5071184;28;20521;-42
2022/03/22 11:31:09;;;;;;;24.77;22.37;;;;;;;13.48;45.89;103394.09;5071799;28;20534;-41
2022/03/22 11:36:26;;;;;;;27.23;22.27;;;;;;;13.54;44.79;103388.13;5071364;28;20469;-41
2022/03/22 11:38:55;;;;;;;28.40;23.57;;;;;;;13.52;43.17;103392.81;5072129;28;20446;-41
2022/03/22 11:44:17;;;;;;;25.90;23.20;;;;;;;13.66;46.34;103384.22;5070257;28;20617;-43
2022/03/22 11:46:46;;;;;;;25.87;23.07;;;;;;;13.64;47.01;103387.09;5059411;28;20491;-43
2022/03/22 11:49:21;;;;;;;26.33;23.30;;;;;;;13.65;45.63;103391.44;5051757;28;20435;-42
2022/03/22 11:51:54;;;;;;;26.70;24.00;;;;;;;13.71;47.69;103377.41;5051792;28;20460;-41
2022/03/22 11:54:23;;;;;;;25.83;23.10;;;;;;;13.82;44.95;103387.06;5051371;28;20931;-43
2022/03/22 11:56:56;;;;;;;26.67;23.17;;;;;;;13.80;44.54;103386.38;5050959;28;20538;-43
2022/03/22 11:59:29;;;;;;;27.93;25.00;;;;;;;14.06;44.22;103386.44;5051817;28;20465;-41